sensor_id;sensor_type;location;lat;lon;timestamp;temperature;humidity
22526;DHT22;11429;50.842;4.386;2023-11-19T00:00:30;13.90;99.90
22526;DHT22;11429;50.842;4.386;2023-11-19T00:02:56;13.90;99.90
22526;DHT22;11429;50.842;4.386;2023-11-19T00:05:21;13.90;99.90
22526;DHT22;11429;50.842;4.386;2023-11-19T00:07:47;13.80;99.90
22526;DHT22;11429;50.842;4.386;2023-11-19T00:10:15;13.80;99.90
22526;DHT22;11429;50.842;4.386;2023-11-19T00:12:48;13.90;99.90
22526;DHT22;11429;50.842;4.386;2023-11-19T00:15:16;13.90;99.90
22526;DHT22;11429;50.842;4.386;2023-11-19T00:17:45;13.90;99.90
22526;DHT22;11429;50.842;4.386;2023-11-19T00:20:15;14.10;99.90
22526;DHT22;11429;50.842;4.386;2023-11-19T00:22:42;14.00;99.90
22526;DHT22;11429;50.842;4.386;2023-11-19T00:25:09;14.00;99.90
22526;DHT22;11429;50.842;4.386;2023-11-19T00:27:37;14.00;99.90
22526;DHT22;11429;50.842;4.386;2023-11-19T00:30:05;14.00;99.90
22526;DHT22;11429;50.842;4.386;2023-11-19T00:32:34;13.90;99.90
22526;DHT22;11429;50.842;4.386;2023-11-19T00:35:00;14.00;99.90
22526;DHT22;11429;50.842;4.386;2023-11-19T00:37:26;14.00;99.90
22526;DHT22;11429;50.842;4.386;2023-11-19T00:39:52;14.00;99.90
22526;DHT22;11429;50.842;4.386;2023-11-19T00:42:18;14.00;99.90
22526;DHT22;11429;50.842;4.386;2023-11-19T00:44:43;14.10;99.90
22526;DHT22;11429;50.842;4.386;2023-11-19T00:47:09;13.90;99.90
22526;DHT22;11429;50.842;4.386;2023-11-19T00:49:35;13.90;99.90
22526;DHT22;11429;50.842;4.386;2023-11-19T00:52:01;13.80;99.90
22526;DHT22;11429;50.842;4.386;2023-11-19T00:54:27;13.90;99.90
22526;DHT22;11429;50.842;4.386;2023-11-19T00:56:53;13.80;99.90
22526;DHT22;11429;50.842;4.386;2023-11-19T00:59:19;13.90;99.90
22526;DHT22;11429;50.842;4.386;2023-11-19T01:01:45;13.80;99.90
22526;DHT22;11429;50.842;4.386;2023-11-19T01:04:11;13.80;99.90
22526;DHT22;11429;50.842;4.386;2023-11-19T01:06:36;13.80;99.90
22526;DHT22;11429;50.842;4.386;2023-11-19T01:09:02;13.80;99.90
22526;DHT22;11429;50.842;4.386;2023-11-19T01:11:28;13.90;99.90
22526;DHT22;11429;50.842;4.386;2023-11-19T01:13:53;14.00;99.90
22526;DHT22;11429;50.842;4.386;2023-11-19T01:16:19;13.90;99.90
22526;DHT22;11429;50.842;4.386;2023-11-19T01:18:49;13.80;99.90
22526;DHT22;11429;50.842;4.386;2023-11-19T01:21:15;13.80;99.90
22526;DHT22;11429;50.842;4.386;2023-11-19T01:23:42;13.80;99.90
22526;DHT22;11429;50.842;4.386;2023-11-19T01:26:11;13.80;99.90
22526;DHT22;11429;50.842;4.386;2023-11-19T01:28:38;13.80;99.90
22526;DHT22;11429;50.842;4.386;2023-11-19T01:31:05;13.90;99.90
22526;DHT22;11429;50.842;4.386;2023-11-19T01:33:35;13.90;99.90
22526;DHT22;11429;50.842;4.386;2023-11-19T01:36:01;13.80;99.90
22526;DHT22;11429;50.842;4.386;2023-11-19T01:38:27;13.80;99.90
22526;DHT22;11429;50.842;4.386;2023-11-19T01:40:56;13.80;99.90
22526;DHT22;11429;50.842;4.386;2023-11-19T01:46:02;13.90;99.90
22526;DHT22;11429;50.842;4.386;2023-11-19T01:48:29;13.90;99.90
22526;DHT22;11429;50.842;4.386;2023-11-19T01:50:55;13.80;99.90
22526;DHT22;11429;50.842;4.386;2023-11-19T01:53:22;13.70;99.90
22526;DHT22;11429;50.842;4.386;2023-11-19T01:55:48;13.70;99.90
22526;DHT22;11429;50.842;4.386;2023-11-19T01:58:15;13.80;99.90
22526;DHT22;11429;50.842;4.386;2023-11-19T02:00:41;13.70;99.90
22526;DHT22;11429;50.842;4.386;2023-11-19T02:03:08;13.70;99.90
22526;DHT22;11429;50.842;4.386;2023-11-19T02:05:34;13.80;99.90
22526;DHT22;11429;50.842;4.386;2023-11-19T02:08:01;13.60;99.90
22526;DHT22;11429;50.842;4.386;2023-11-19T02:10:27;13.60;99.90
22526;DHT22;11429;50.842;4.386;2023-11-19T02:12:53;13.60;99.90
22526;DHT22;11429;50.842;4.386;2023-11-19T02:15:18;13.50;99.90
22526;DHT22;11429;50.842;4.386;2023-11-19T02:17:44;13.50;99.90
22526;DHT22;11429;50.842;4.386;2023-11-19T02:20:10;13.40;99.90
22526;DHT22;11429;50.842;4.386;2023-11-19T02:22:40;13.40;99.90
22526;DHT22;11429;50.842;4.386;2023-11-19T02:25:30;13.40;99.90
22526;DHT22;11429;50.842;4.386;2023-11-19T02:28:01;13.40;99.90
22526;DHT22;11429;50.842;4.386;2023-11-19T02:30:27;13.30;99.90
22526;DHT22;11429;50.842;4.386;2023-11-19T02:33:00;13.20;99.90
22526;DHT22;11429;50.842;4.386;2023-11-19T02:35:31;13.30;99.90
22526;DHT22;11429;50.842;4.386;2023-11-19T02:37:58;13.20;99.90
22526;DHT22;11429;50.842;4.386;2023-11-19T02:40:24;13.20;99.90
22526;DHT22;11429;50.842;4.386;2023-11-19T02:42:53;13.30;99.90
22526;DHT22;11429;50.842;4.386;2023-11-19T02:45:24;13.30;99.90
22526;DHT22;11429;50.842;4.386;2023-11-19T02:47:51;13.20;99.90
22526;DHT22;11429;50.842;4.386;2023-11-19T02:50:17;13.30;99.90
22526;DHT22;11429;50.842;4.386;2023-11-19T02:52:52;13.40;99.90
22526;DHT22;11429;50.842;4.386;2023-11-19T02:55:18;13.40;99.90
22526;DHT22;11429;50.842;4.386;2023-11-19T02:57:45;13.40;99.90
22526;DHT22;11429;50.842;4.386;2023-11-19T03:00:19;13.50;99.90
22526;DHT22;11429;50.842;4.386;2023-11-19T03:02:49;13.50;99.90
22526;DHT22;11429;50.842;4.386;2023-11-19T03:05:24;13.50;99.90
22526;DHT22;11429;50.842;4.386;2023-11-19T03:07:50;13.40;99.90
22526;DHT22;11429;50.842;4.386;2023-11-19T03:10:16;13.30;99.90
22526;DHT22;11429;50.842;4.386;2023-11-19T03:12:43;13.30;99.90
22526;DHT22;11429;50.842;4.386;2023-11-19T03:15:09;13.30;99.90
22526;DHT22;11429;50.842;4.386;2023-11-19T03:17:44;13.10;99.90
22526;DHT22;11429;50.842;4.386;2023-11-19T03:20:11;13.10;99.90
22526;DHT22;11429;50.842;4.386;2023-11-19T03:22:42;13.10;99.90
22526;DHT22;11429;50.842;4.386;2023-11-19T03:25:08;13.10;99.90
22526;DHT22;11429;50.842;4.386;2023-11-19T03:27:40;13.00;99.90
22526;DHT22;11429;50.842;4.386;2023-11-19T03:30:08;12.90;99.90
22526;DHT22;11429;50.842;4.386;2023-11-19T03:32:37;12.80;99.90
22526;DHT22;11429;50.842;4.386;2023-11-19T03:35:04;13.00;99.90
22526;DHT22;11429;50.842;4.386;2023-11-19T03:37:32;13.00;99.90
22526;DHT22;11429;50.842;4.386;2023-11-19T03:39:58;13.00;99.90
22526;DHT22;11429;50.842;4.386;2023-11-19T03:42:29;12.90;99.90
22526;DHT22;11429;50.842;4.386;2023-11-19T03:44:58;12.90;99.90
22526;DHT22;11429;50.842;4.386;2023-11-19T03:47:24;12.90;99.90
22526;DHT22;11429;50.842;4.386;2023-11-19T03:49:50;12.90;99.90
22526;DHT22;11429;50.842;4.386;2023-11-19T03:52:16;12.80;99.90
22526;DHT22;11429;50.842;4.386;2023-11-19T03:54:42;12.70;99.90
22526;DHT22;11429;50.842;4.386;2023-11-19T03:57:08;12.70;99.90
22526;DHT22;11429;50.842;4.386;2023-11-19T03:59:36;12.70;99.90
22526;DHT22;11429;50.842;4.386;2023-11-19T04:02:01;12.60;99.90
22526;DHT22;11429;50.842;4.386;2023-11-19T04:04:28;12.60;99.90
22526;DHT22;11429;50.842;4.386;2023-11-19T04:06:55;12.60;99.90
22526;DHT22;11429;50.842;4.386;2023-11-19T04:09:21;12.60;99.90
22526;DHT22;11429;50.842;4.386;2023-11-19T04:11:46;12.70;99.90
22526;DHT22;11429;50.842;4.386;2023-11-19T04:14:13;12.80;99.90
22526;DHT22;11429;50.842;4.386;2023-11-19T04:16:39;12.70;99.90
22526;DHT22;11429;50.842;4.386;2023-11-19T04:19:05;12.70;99.90
22526;DHT22;11429;50.842;4.386;2023-11-19T04:21:32;12.70;99.90
22526;DHT22;11429;50.842;4.386;2023-11-19T04:23:58;12.70;99.90
22526;DHT22;11429;50.842;4.386;2023-11-19T04:26:24;12.80;99.90
22526;DHT22;11429;50.842;4.386;2023-11-19T04:28:49;12.80;99.90
22526;DHT22;11429;50.842;4.386;2023-11-19T04:31:15;12.70;99.90
22526;DHT22;11429;50.842;4.386;2023-11-19T04:33:42;12.60;99.90
22526;DHT22;11429;50.842;4.386;2023-11-19T04:36:09;12.60;99.90
22526;DHT22;11429;50.842;4.386;2023-11-19T04:38:35;12.50;99.90
22526;DHT22;11429;50.842;4.386;2023-11-19T04:41:01;12.50;99.90
22526;DHT22;11429;50.842;4.386;2023-11-19T04:43:26;12.50;99.90
22526;DHT22;11429;50.842;4.386;2023-11-19T04:45:52;12.50;99.90
22526;DHT22;11429;50.842;4.386;2023-11-19T04:48:18;12.40;99.90
22526;DHT22;11429;50.842;4.386;2023-11-19T04:50:43;12.50;99.90
22526;DHT22;11429;50.842;4.386;2023-11-19T04:53:09;12.50;99.90
22526;DHT22;11429;50.842;4.386;2023-11-19T04:55:35;12.50;99.90
22526;DHT22;11429;50.842;4.386;2023-11-19T04:58:01;12.50;99.90
22526;DHT22;11429;50.842;4.386;2023-11-19T05:00:26;12.60;99.90
22526;DHT22;11429;50.842;4.386;2023-11-19T05:02:52;12.70;99.90
22526;DHT22;11429;50.842;4.386;2023-11-19T05:05:18;12.70;99.90
22526;DHT22;11429;50.842;4.386;2023-11-19T05:07:44;12.70;99.90
22526;DHT22;11429;50.842;4.386;2023-11-19T05:10:09;12.70;99.90
22526;DHT22;11429;50.842;4.386;2023-11-19T05:12:35;12.70;99.90
22526;DHT22;11429;50.842;4.386;2023-11-19T05:15:01;12.60;99.90
22526;DHT22;11429;50.842;4.386;2023-11-19T05:17:26;12.70;99.90
22526;DHT22;11429;50.842;4.386;2023-11-19T05:19:52;12.50;99.90
22526;DHT22;11429;50.842;4.386;2023-11-19T05:22:18;12.40;99.90
22526;DHT22;11429;50.842;4.386;2023-11-19T05:24:43;12.30;99.90
22526;DHT22;11429;50.842;4.386;2023-11-19T05:27:09;12.30;99.90
22526;DHT22;11429;50.842;4.386;2023-11-19T05:29:37;12.40;99.90
22526;DHT22;11429;50.842;4.386;2023-11-19T05:32:05;12.50;99.90
22526;DHT22;11429;50.842;4.386;2023-11-19T05:34:30;12.50;99.90
22526;DHT22;11429;50.842;4.386;2023-11-19T05:36:56;12.50;99.90
22526;DHT22;11429;50.842;4.386;2023-11-19T05:39:23;12.50;99.90
22526;DHT22;11429;50.842;4.386;2023-11-19T05:41:49;12.60;99.90
22526;DHT22;11429;50.842;4.386;2023-11-19T05:44:15;12.60;99.90
22526;DHT22;11429;50.842;4.386;2023-11-19T05:46:41;12.60;99.90
22526;DHT22;11429;50.842;4.386;2023-11-19T05:49:08;12.60;99.90
22526;DHT22;11429;50.842;4.386;2023-11-19T05:51:38;12.50;99.90
22526;DHT22;11429;50.842;4.386;2023-11-19T05:54:08;12.50;99.90
22526;DHT22;11429;50.842;4.386;2023-11-19T05:56:34;12.50;99.90
22526;DHT22;11429;50.842;4.386;2023-11-19T05:59:00;12.50;99.90
22526;DHT22;11429;50.842;4.386;2023-11-19T06:01:26;12.50;99.90
22526;DHT22;11429;50.842;4.386;2023-11-19T06:03:52;12.40;99.90
22526;DHT22;11429;50.842;4.386;2023-11-19T06:06:18;12.20;99.90
22526;DHT22;11429;50.842;4.386;2023-11-19T06:08:44;12.20;99.90
22526;DHT22;11429;50.842;4.386;2023-11-19T06:11:10;12.10;99.90
22526;DHT22;11429;50.842;4.386;2023-11-19T06:13:40;12.10;99.90
22526;DHT22;11429;50.842;4.386;2023-11-19T06:16:06;12.10;99.90
22526;DHT22;11429;50.842;4.386;2023-11-19T06:18:32;12.10;99.90
22526;DHT22;11429;50.842;4.386;2023-11-19T06:20:58;12.10;99.90
22526;DHT22;11429;50.842;4.386;2023-11-19T06:23:23;12.00;99.90
22526;DHT22;11429;50.842;4.386;2023-11-19T06:25:49;12.10;99.90
22526;DHT22;11429;50.842;4.386;2023-11-19T06:28:14;12.00;99.90
22526;DHT22;11429;50.842;4.386;2023-11-19T06:30:40;12.00;99.90
22526;DHT22;11429;50.842;4.386;2023-11-19T06:33:07;12.00;99.90
22526;DHT22;11429;50.842;4.386;2023-11-19T06:35:33;12.10;99.90
22526;DHT22;11429;50.842;4.386;2023-11-19T06:38:04;12.10;99.90
22526;DHT22;11429;50.842;4.386;2023-11-19T06:40:34;12.20;99.90
22526;DHT22;11429;50.842;4.386;2023-11-19T06:43:03;12.00;99.90
22526;DHT22;11429;50.842;4.386;2023-11-19T06:45:34;11.90;99.90
22526;DHT22;11429;50.842;4.386;2023-11-19T06:48:03;12.10;99.90
22526;DHT22;11429;50.842;4.386;2023-11-19T06:50:30;12.10;99.90
22526;DHT22;11429;50.842;4.386;2023-11-19T06:52:56;12.00;99.90
22526;DHT22;11429;50.842;4.386;2023-11-19T06:55:22;12.00;99.90
22526;DHT22;11429;50.842;4.386;2023-11-19T06:57:47;11.90;99.90
22526;DHT22;11429;50.842;4.386;2023-11-19T07:00:13;11.90;99.90
22526;DHT22;11429;50.842;4.386;2023-11-19T07:02:39;11.90;99.90
22526;DHT22;11429;50.842;4.386;2023-11-19T07:05:05;11.80;99.90
22526;DHT22;11429;50.842;4.386;2023-11-19T07:07:31;11.80;99.90
22526;DHT22;11429;50.842;4.386;2023-11-19T07:09:58;11.80;99.90
22526;DHT22;11429;50.842;4.386;2023-11-19T07:12:24;12.00;99.90
22526;DHT22;11429;50.842;4.386;2023-11-19T07:14:52;12.20;99.90
22526;DHT22;11429;50.842;4.386;2023-11-19T07:17:18;12.20;99.90
22526;DHT22;11429;50.842;4.386;2023-11-19T07:19:46;12.20;99.90
22526;DHT22;11429;50.842;4.386;2023-11-19T07:22:12;12.10;99.90
22526;DHT22;11429;50.842;4.386;2023-11-19T07:24:39;12.10;99.90
22526;DHT22;11429;50.842;4.386;2023-11-19T07:27:05;12.00;99.90
22526;DHT22;11429;50.842;4.386;2023-11-19T07:29:32;12.10;99.90
22526;DHT22;11429;50.842;4.386;2023-11-19T07:31:57;12.10;99.90
22526;DHT22;11429;50.842;4.386;2023-11-19T07:34:24;12.10;99.90
22526;DHT22;11429;50.842;4.386;2023-11-19T07:36:50;12.00;99.90
22526;DHT22;11429;50.842;4.386;2023-11-19T07:39:15;12.00;99.90
22526;DHT22;11429;50.842;4.386;2023-11-19T07:41:41;12.00;99.90
22526;DHT22;11429;50.842;4.386;2023-11-19T07:44:07;12.10;99.90
22526;DHT22;11429;50.842;4.386;2023-11-19T07:46:32;12.10;99.90
22526;DHT22;11429;50.842;4.386;2023-11-19T07:48:58;12.30;99.90
22526;DHT22;11429;50.842;4.386;2023-11-19T07:51:24;12.20;99.90
22526;DHT22;11429;50.842;4.386;2023-11-19T07:53:49;12.20;99.90
22526;DHT22;11429;50.842;4.386;2023-11-19T07:56:15;12.20;99.90
22526;DHT22;11429;50.842;4.386;2023-11-19T07:58:41;12.30;99.90
22526;DHT22;11429;50.842;4.386;2023-11-19T08:01:07;12.30;99.90
22526;DHT22;11429;50.842;4.386;2023-11-19T08:03:33;12.30;99.90
22526;DHT22;11429;50.842;4.386;2023-11-19T08:06:03;12.40;99.90
22526;DHT22;11429;50.842;4.386;2023-11-19T08:08:28;12.30;99.90
22526;DHT22;11429;50.842;4.386;2023-11-19T08:10:58;12.40;99.90
22526;DHT22;11429;50.842;4.386;2023-11-19T08:13:24;12.50;99.90
22526;DHT22;11429;50.842;4.386;2023-11-19T08:15:50;12.50;99.90
22526;DHT22;11429;50.842;4.386;2023-11-19T08:18:16;12.80;99.90
22526;DHT22;11429;50.842;4.386;2023-11-19T08:20:43;12.80;99.90
22526;DHT22;11429;50.842;4.386;2023-11-19T08:23:10;12.80;99.90
22526;DHT22;11429;50.842;4.386;2023-11-19T08:25:36;12.70;99.90
22526;DHT22;11429;50.842;4.386;2023-11-19T08:28:02;12.70;99.90
22526;DHT22;11429;50.842;4.386;2023-11-19T08:30:29;12.80;99.90
22526;DHT22;11429;50.842;4.386;2023-11-19T08:32:57;12.90;99.90
22526;DHT22;11429;50.842;4.386;2023-11-19T08:35:25;12.90;99.90
22526;DHT22;11429;50.842;4.386;2023-11-19T08:37:51;13.00;99.90
22526;DHT22;11429;50.842;4.386;2023-11-19T08:40:17;13.10;99.90
22526;DHT22;11429;50.842;4.386;2023-11-19T08:42:43;12.90;99.90
22526;DHT22;11429;50.842;4.386;2023-11-19T08:45:09;12.90;99.90
22526;DHT22;11429;50.842;4.386;2023-11-19T08:47:36;12.80;99.90
22526;DHT22;11429;50.842;4.386;2023-11-19T08:50:02;12.80;99.90
22526;DHT22;11429;50.842;4.386;2023-11-19T08:52:29;12.80;99.90
22526;DHT22;11429;50.842;4.386;2023-11-19T08:54:55;12.90;99.90
22526;DHT22;11429;50.842;4.386;2023-11-19T08:57:21;12.90;99.90
22526;DHT22;11429;50.842;4.386;2023-11-19T08:59:47;12.70;99.90
22526;DHT22;11429;50.842;4.386;2023-11-19T09:02:12;12.70;99.90
22526;DHT22;11429;50.842;4.386;2023-11-19T09:04:38;12.90;99.90
22526;DHT22;11429;50.842;4.386;2023-11-19T09:07:04;13.00;99.90
22526;DHT22;11429;50.842;4.386;2023-11-19T09:09:29;13.20;99.90
22526;DHT22;11429;50.842;4.386;2023-11-19T09:11:55;13.00;99.90
22526;DHT22;11429;50.842;4.386;2023-11-19T09:14:21;13.10;99.90
22526;DHT22;11429;50.842;4.386;2023-11-19T09:16:51;13.00;99.90
22526;DHT22;11429;50.842;4.386;2023-11-19T09:19:17;12.80;99.90
22526;DHT22;11429;50.842;4.386;2023-11-19T09:21:43;12.90;99.90
22526;DHT22;11429;50.842;4.386;2023-11-19T09:24:09;13.10;99.90
22526;DHT22;11429;50.842;4.386;2023-11-19T09:26:35;13.20;99.90
22526;DHT22;11429;50.842;4.386;2023-11-19T09:29:02;13.40;99.90
22526;DHT22;11429;50.842;4.386;2023-11-19T09:31:27;13.60;99.90
22526;DHT22;11429;50.842;4.386;2023-11-19T09:33:53;13.80;99.90
22526;DHT22;11429;50.842;4.386;2023-11-19T09:36:19;13.80;99.90
22526;DHT22;11429;50.842;4.386;2023-11-19T09:38:45;13.70;99.90
22526;DHT22;11429;50.842;4.386;2023-11-19T09:41:11;13.90;99.90
22526;DHT22;11429;50.842;4.386;2023-11-19T09:43:40;14.00;99.90
22526;DHT22;11429;50.842;4.386;2023-11-19T09:46:07;14.10;99.90
22526;DHT22;11429;50.842;4.386;2023-11-19T09:48:36;14.60;99.90
22526;DHT22;11429;50.842;4.386;2023-11-19T09:51:09;15.00;99.90
22526;DHT22;11429;50.842;4.386;2023-11-19T09:53:36;15.40;99.90
22526;DHT22;11429;50.842;4.386;2023-11-19T09:56:04;15.50;99.90
22526;DHT22;11429;50.842;4.386;2023-11-19T09:58:30;16.00;99.90
22526;DHT22;11429;50.842;4.386;2023-11-19T10:00:57;15.80;99.90
22526;DHT22;11429;50.842;4.386;2023-11-19T10:03:33;15.70;99.90
22526;DHT22;11429;50.842;4.386;2023-11-19T10:06:05;15.70;99.90
22526;DHT22;11429;50.842;4.386;2023-11-19T10:08:32;15.70;99.90
22526;DHT22;11429;50.842;4.386;2023-11-19T10:10:58;15.90;99.90
22526;DHT22;11429;50.842;4.386;2023-11-19T10:13:30;16.20;99.90
22526;DHT22;11429;50.842;4.386;2023-11-19T10:15:57;15.80;99.90
22526;DHT22;11429;50.842;4.386;2023-11-19T10:18:26;15.50;99.90
22526;DHT22;11429;50.842;4.386;2023-11-19T10:20:52;15.80;99.90
22526;DHT22;11429;50.842;4.386;2023-11-19T10:23:18;15.30;99.90
22526;DHT22;11429;50.842;4.386;2023-11-19T10:25:45;15.00;99.90
22526;DHT22;11429;50.842;4.386;2023-11-19T10:28:10;15.30;99.90
22526;DHT22;11429;50.842;4.386;2023-11-19T10:30:36;15.50;99.90
22526;DHT22;11429;50.842;4.386;2023-11-19T10:33:12;15.50;99.90
22526;DHT22;11429;50.842;4.386;2023-11-19T10:35:53;15.00;99.90
22526;DHT22;11429;50.842;4.386;2023-11-19T10:38:19;15.00;99.90
22526;DHT22;11429;50.842;4.386;2023-11-19T10:40:45;15.30;99.90
22526;DHT22;11429;50.842;4.386;2023-11-19T10:43:10;15.40;99.90
22526;DHT22;11429;50.842;4.386;2023-11-19T10:45:37;15.20;99.90
22526;DHT22;11429;50.842;4.386;2023-11-19T10:48:04;14.80;99.90
22526;DHT22;11429;50.842;4.386;2023-11-19T10:50:37;14.90;99.90
22526;DHT22;11429;50.842;4.386;2023-11-19T10:53:04;14.60;99.90
22526;DHT22;11429;50.842;4.386;2023-11-19T10:55:37;14.40;99.90
22526;DHT22;11429;50.842;4.386;2023-11-19T10:58:06;14.50;99.90
22526;DHT22;11429;50.842;4.386;2023-11-19T11:00:45;14.80;99.90
22526;DHT22;11429;50.842;4.386;2023-11-19T11:05:42;15.30;99.90
22526;DHT22;11429;50.842;4.386;2023-11-19T11:08:09;15.40;99.90
22526;DHT22;11429;50.842;4.386;2023-11-19T11:10:42;15.60;99.90
22526;DHT22;11429;50.842;4.386;2023-11-19T11:13:09;15.70;99.90
22526;DHT22;11429;50.842;4.386;2023-11-19T11:15:36;15.50;99.90
22526;DHT22;11429;50.842;4.386;2023-11-19T11:18:03;15.20;99.90
22526;DHT22;11429;50.842;4.386;2023-11-19T11:20:33;15.30;99.90
22526;DHT22;11429;50.842;4.386;2023-11-19T11:29:02;14.50;99.90
22526;DHT22;11429;50.842;4.386;2023-11-19T11:31:50;14.30;99.90
22526;DHT22;11429;50.842;4.386;2023-11-19T11:37:31;14.40;99.90
22526;DHT22;11429;50.842;4.386;2023-11-19T11:39:58;14.80;99.90
22526;DHT22;11429;50.842;4.386;2023-11-19T11:45:14;15.00;99.90
22526;DHT22;11429;50.842;4.386;2023-11-19T11:50:15;15.40;99.90
22526;DHT22;11429;50.842;4.386;2023-11-19T11:53:14;15.80;99.90
22526;DHT22;11429;50.842;4.386;2023-11-19T11:58:17;16.30;99.90
22526;DHT22;11429;50.842;4.386;2023-11-19T12:00:45;16.90;99.90
22526;DHT22;11429;50.842;4.386;2023-11-19T12:03:12;17.00;99.90
22526;DHT22;11429;50.842;4.386;2023-11-19T12:05:42;16.70;99.90
22526;DHT22;11429;50.842;4.386;2023-11-19T12:08:10;16.60;99.90
22526;DHT22;11429;50.842;4.386;2023-11-19T12:10:50;16.50;99.90
22526;DHT22;11429;50.842;4.386;2023-11-19T12:13:17;16.20;99.90
22526;DHT22;11429;50.842;4.386;2023-11-19T12:20:49;15.30;99.90
22526;DHT22;11429;50.842;4.386;2023-11-19T12:23:15;14.90;99.90
22526;DHT22;11429;50.842;4.386;2023-11-19T12:25:40;14.70;99.90
22526;DHT22;11429;50.842;4.386;2023-11-19T12:28:12;14.40;99.90
22526;DHT22;11429;50.842;4.386;2023-11-19T12:30:38;14.30;99.90
22526;DHT22;11429;50.842;4.386;2023-11-19T12:33:14;14.30;99.90
22526;DHT22;11429;50.842;4.386;2023-11-19T12:35:44;14.30;99.90
22526;DHT22;11429;50.842;4.386;2023-11-19T12:38:19;14.20;99.90
22526;DHT22;11429;50.842;4.386;2023-11-19T12:41:05;14.10;99.90
22526;DHT22;11429;50.842;4.386;2023-11-19T12:43:31;14.00;99.90
22526;DHT22;11429;50.842;4.386;2023-11-19T12:45:57;13.90;99.90
22526;DHT22;11429;50.842;4.386;2023-11-19T12:48:22;14.10;99.90
22526;DHT22;11429;50.842;4.386;2023-11-19T12:50:58;14.10;99.90
22526;DHT22;11429;50.842;4.386;2023-11-19T12:53:26;14.20;99.90
22526;DHT22;11429;50.842;4.386;2023-11-19T12:55:52;14.20;99.90
22526;DHT22;11429;50.842;4.386;2023-11-19T12:58:31;14.20;99.90
22526;DHT22;11429;50.842;4.386;2023-11-19T13:01:05;14.40;99.90
22526;DHT22;11429;50.842;4.386;2023-11-19T13:03:32;14.40;99.90
22526;DHT22;11429;50.842;4.386;2023-11-19T13:06:05;14.40;99.90
22526;DHT22;11429;50.842;4.386;2023-11-19T13:08:37;14.20;99.90
22526;DHT22;11429;50.842;4.386;2023-11-19T13:11:04;14.20;99.90
22526;DHT22;11429;50.842;4.386;2023-11-19T13:13:30;14.20;99.90
22526;DHT22;11429;50.842;4.386;2023-11-19T13:16:05;14.20;99.90
22526;DHT22;11429;50.842;4.386;2023-11-19T13:18:34;14.20;99.90
22526;DHT22;11429;50.842;4.386;2023-11-19T13:21:00;14.40;99.90
22526;DHT22;11429;50.842;4.386;2023-11-19T13:23:26;14.30;99.90
22526;DHT22;11429;50.842;4.386;2023-11-19T13:25:51;14.50;99.90
22526;DHT22;11429;50.842;4.386;2023-11-19T13:28:17;14.30;99.90
22526;DHT22;11429;50.842;4.386;2023-11-19T13:30:43;14.40;99.90
22526;DHT22;11429;50.842;4.386;2023-11-19T13:33:08;14.20;99.90
22526;DHT22;11429;50.842;4.386;2023-11-19T13:35:37;14.30;99.90
22526;DHT22;11429;50.842;4.386;2023-11-19T13:38:06;14.20;99.90
22526;DHT22;11429;50.842;4.386;2023-11-19T13:40:31;14.00;99.90
22526;DHT22;11429;50.842;4.386;2023-11-19T13:42:57;14.10;99.90
22526;DHT22;11429;50.842;4.386;2023-11-19T13:45:23;14.00;99.90
22526;DHT22;11429;50.842;4.386;2023-11-19T13:47:48;13.90;99.90
22526;DHT22;11429;50.842;4.386;2023-11-19T13:50:15;13.90;99.90
22526;DHT22;11429;50.842;4.386;2023-11-19T13:52:44;13.80;99.90
22526;DHT22;11429;50.842;4.386;2023-11-19T13:55:11;13.80;99.90
22526;DHT22;11429;50.842;4.386;2023-11-19T13:57:38;13.90;99.90
22526;DHT22;11429;50.842;4.386;2023-11-19T14:00:09;13.80;99.90
22526;DHT22;11429;50.842;4.386;2023-11-19T14:02:39;13.70;99.90
22526;DHT22;11429;50.842;4.386;2023-11-19T14:05:05;13.70;99.90
22526;DHT22;11429;50.842;4.386;2023-11-19T14:07:31;13.80;99.90
22526;DHT22;11429;50.842;4.386;2023-11-19T14:09:57;13.80;99.90
22526;DHT22;11429;50.842;4.386;2023-11-19T14:12:22;13.80;99.90
22526;DHT22;11429;50.842;4.386;2023-11-19T14:14:48;13.80;99.90
22526;DHT22;11429;50.842;4.386;2023-11-19T14:17:14;14.00;99.90
22526;DHT22;11429;50.842;4.386;2023-11-19T14:19:41;14.00;99.90
22526;DHT22;11429;50.842;4.386;2023-11-19T14:22:07;13.90;99.90
22526;DHT22;11429;50.842;4.386;2023-11-19T14:24:34;13.90;99.90
22526;DHT22;11429;50.842;4.386;2023-11-19T14:27:00;14.00;99.90
22526;DHT22;11429;50.842;4.386;2023-11-19T14:29:26;13.80;99.90
22526;DHT22;11429;50.842;4.386;2023-11-19T14:31:53;13.80;99.90
22526;DHT22;11429;50.842;4.386;2023-11-19T14:34:20;13.90;99.90
22526;DHT22;11429;50.842;4.386;2023-11-19T14:36:46;13.70;99.90
22526;DHT22;11429;50.842;4.386;2023-11-19T14:39:12;13.60;99.90
22526;DHT22;11429;50.842;4.386;2023-11-19T14:41:38;13.50;99.90
22526;DHT22;11429;50.842;4.386;2023-11-19T14:44:04;13.50;99.90
22526;DHT22;11429;50.842;4.386;2023-11-19T14:46:31;13.50;99.90
22526;DHT22;11429;50.842;4.386;2023-11-19T14:48:56;13.40;99.90
22526;DHT22;11429;50.842;4.386;2023-11-19T14:51:22;13.30;99.90
22526;DHT22;11429;50.842;4.386;2023-11-19T14:53:48;13.50;99.90
22526;DHT22;11429;50.842;4.386;2023-11-19T14:56:13;13.50;99.90
22526;DHT22;11429;50.842;4.386;2023-11-19T14:58:39;13.50;99.90
22526;DHT22;11429;50.842;4.386;2023-11-19T15:01:05;13.60;99.90
22526;DHT22;11429;50.842;4.386;2023-11-19T15:03:31;13.50;99.90
22526;DHT22;11429;50.842;4.386;2023-11-19T15:05:58;13.50;99.90
22526;DHT22;11429;50.842;4.386;2023-11-19T15:08:24;13.50;99.90
22526;DHT22;11429;50.842;4.386;2023-11-19T15:10:49;13.40;99.90
22526;DHT22;11429;50.842;4.386;2023-11-19T15:13:15;13.40;99.90
22526;DHT22;11429;50.842;4.386;2023-11-19T15:15:41;13.40;99.90
22526;DHT22;11429;50.842;4.386;2023-11-19T15:18:07;13.50;99.90
22526;DHT22;11429;50.842;4.386;2023-11-19T15:20:33;13.50;99.90
22526;DHT22;11429;50.842;4.386;2023-11-19T15:22:59;13.30;99.90
22526;DHT22;11429;50.842;4.386;2023-11-19T15:25:24;13.30;99.90
22526;DHT22;11429;50.842;4.386;2023-11-19T15:27:50;13.30;99.90
22526;DHT22;11429;50.842;4.386;2023-11-19T15:30:16;13.40;99.90
22526;DHT22;11429;50.842;4.386;2023-11-19T15:32:42;13.40;99.90
22526;DHT22;11429;50.842;4.386;2023-11-19T15:35:10;13.40;99.90
22526;DHT22;11429;50.842;4.386;2023-11-19T15:37:37;13.40;99.90
22526;DHT22;11429;50.842;4.386;2023-11-19T15:40:07;13.40;99.90
22526;DHT22;11429;50.842;4.386;2023-11-19T15:42:36;13.40;99.90
22526;DHT22;11429;50.842;4.386;2023-11-19T15:45:02;13.50;99.90
22526;DHT22;11429;50.842;4.386;2023-11-19T15:47:32;13.60;99.90
22526;DHT22;11429;50.842;4.386;2023-11-19T15:49:59;13.60;99.90
22526;DHT22;11429;50.842;4.386;2023-11-19T15:52:24;13.70;99.90
22526;DHT22;11429;50.842;4.386;2023-11-19T15:54:52;13.70;99.90
22526;DHT22;11429;50.842;4.386;2023-11-19T15:57:18;13.70;99.90